Time;durP1;ratioP1;P1;durP2;ratioP2;P2;SDS_P1;SDS_P2;PMS_P1;PMS_P2;Temp;Humidity;BMP_temperature;BMP_pressure;BME280_temperature;BME280_humidity;BME280_pressure;Samples;Min_cycle;Max_cycle;Signal;HPM_P1;HPM_P2
2023/05/05 00:01:17;;;;;;;;;;;;;;;21.60;79.30;98721.94;5004519;28;20003;-46
2023/05/05 00:03:43;;;;;;;;;;;;;;;21.86;79.60;98718.94;5005856;28;19968;-46
2023/05/05 00:06:08;;;;;;;;;;;;;;;22.01;80.04;98725.53;5007724;28;20008;-46
2023/05/05 00:08:33;;;;;;;;;;;;;;;21.51;79.73;98727.94;5005947;28;19921;-45
2023/05/05 00:10:58;;;;;;;;;;;;;;;21.79;78.64;98710.75;5004616;28;19994;-45
2023/05/05 00:13:24;;;;;;;;;;;;;;;21.97;78.61;98711.00;5004117;28;19924;-45
2023/05/05 00:15:49;;;;;;;;;;;;;;;21.88;79.99;98717.84;5005870;28;19914;-45
2023/05/05 00:18:15;;;;;;;;;;;;;;;21.18;77.25;98698.22;5008590;28;19921;-46
2023/05/05 00:20:41;;;;;;;;;;;;;;;21.25;81.71;98727.38;5006649;28;20275;-44
2023/05/05 00:23:06;;;;;;;;;;;;;;;22.19;78.07;98696.06;5003926;28;19929;-45
2023/05/05 00:25:31;;;;;;;;;;;;;;;21.80;78.66;98708.94;5006064;28;19921;-46
2023/05/05 00:27:56;;;;;;;;;;;;;;;21.36;80.15;98718.66;5006470;28;20638;-47
2023/05/05 00:30:22;;;;;;;;;;;;;;;21.41;80.76;98716.50;5006613;28;20576;-47
2023/05/05 00:32:48;;;;;;;;;;;;;;;20.98;79.05;98699.00;5005716;28;19925;-44
2023/05/05 00:35:13;;;;;;;;;;;;;;;21.56;81.61;98715.28;5005219;28;19925;-45
2023/05/05 00:37:38;;;;;;;;;;;;;;;21.17;84.18;98733.22;5005475;28;19924;-45
2023/05/05 00:40:05;;;;;;;;;;;;;;;21.03;80.79;98697.69;5005883;28;19921;-45
2023/05/05 00:42:40;;;;;;;;;;;;;;;21.39;83.14;98718.41;5006332;28;20653;-45
2023/05/05 00:45:05;;;;;;;;;;;;;;;20.95;82.68;98715.78;5004493;28;19929;-45
2023/05/05 00:47:31;;;;;;;;;;;;;;;20.84;83.64;98724.47;5004954;28;20014;-44
2023/05/05 00:49:56;;;;;;;;;;;;;;;21.42;83.78;98718.19;5006582;28;19913;-46
2023/05/05 00:52:21;;;;;;;;;;;;;;;21.51;80.77;98691.25;5007422;28;21558;-45
2023/05/05 00:54:47;;;;;;;;;;;;;;;21.27;79.29;98684.38;4966548;28;20012;-46
2023/05/05 00:57:12;;;;;;;;;;;;;;;21.65;79.51;98680.44;5005151;28;19921;-46
2023/05/05 00:59:37;;;;;;;;;;;;;;;21.50;82.31;98697.44;5005599;28;19956;-46
2023/05/05 01:02:02;;;;;;;;;;;;;;;21.52;78.31;98666.69;5003741;28;20007;-45
2023/05/05 01:04:27;;;;;;;;;;;;;;;21.76;79.52;98678.72;4983282;28;21069;-45
2023/05/05 01:07:07;;;;;;;;;;;;;;;21.45;81.29;98695.19;5003485;28;21235;-45
2023/05/05 01:09:35;;;;;;;;;;;;;;;21.95;77.79;98651.81;5001899;28;19921;-45
2023/05/05 01:12:26;;;;;;;;;;;;;;;21.65;78.33;98674.38;5004943;28;19916;-45
2023/05/05 01:14:53;;;;;;;;;;;;;;;21.40;77.91;98667.69;5001664;28;20377;-45
2023/05/05 01:17:18;;;;;;;;;;;;;;;21.40;78.55;98668.53;5001804;28;19965;-45
2023/05/05 01:19:57;;;;;;;;;;;;;;;21.05;82.79;98700.16;4986295;28;19928;-45
2023/05/05 01:22:23;;;;;;;;;;;;;;;21.27;82.37;98683.56;5002770;28;19928;-44
2023/05/05 01:24:56;;;;;;;;;;;;;;;20.98;81.12;98670.19;5004187;28;19925;-45
2023/05/05 01:27:26;;;;;;;;;;;;;;;21.53;82.68;98678.84;5002189;28;20015;-44
2023/05/05 01:30:00;;;;;;;;;;;;;;;20.87;82.93;98695.44;5005359;28;19921;-45
2023/05/05 01:32:26;;;;;;;;;;;;;;;21.01;84.77;98701.38;5006093;28;19916;-44
2023/05/05 01:35:11;;;;;;;;;;;;;;;21.43;80.07;98639.47;5003944;28;19927;-45
2023/05/05 01:37:52;;;;;;;;;;;;;;;21.54;81.77;98659.53;5004610;28;20408;-44
2023/05/05 01:40:19;;;;;;;;;;;;;;;20.73;81.53;98672.13;5006283;28;19925;-45
2023/05/05 01:42:44;;;;;;;;;;;;;;;21.28;82.69;98670.34;4989540;28;19923;-46
2023/05/05 01:45:10;;;;;;;;;;;;;;;21.06;81.54;98668.63;4989455;28;20388;-45
2023/05/05 01:47:36;;;;;;;;;;;;;;;21.27;82.00;98673.06;5004890;28;20044;-45
2023/05/05 01:50:02;;;;;;;;;;;;;;;20.98;80.26;98662.34;4989982;28;20028;-45
2023/05/05 01:52:28;;;;;;;;;;;;;;;21.45;81.30;98670.78;5007859;28;19925;-47
2023/05/05 01:54:53;;;;;;;;;;;;;;;20.81;81.30;98667.13;5007387;28;20018;-48
2023/05/05 01:57:19;;;;;;;;;;;;;;;21.50;80.36;98658.13;5007074;28;19969;-45
2023/05/05 01:59:45;;;;;;;;;;;;;;;21.55;81.10;98661.19;4988244;28;20704;-46
2023/05/05 02:02:10;;;;;;;;;;;;;;;21.48;81.70;98667.91;4986051;28;20779;-44
2023/05/05 02:04:36;;;;;;;;;;;;;;;21.57;78.62;98646.16;5001537;28;20329;-45
2023/05/05 02:07:01;;;;;;;;;;;;;;;21.35;82.65;98680.31;5008295;28;19923;-45
2023/05/05 02:09:27;;;;;;;;;;;;;;;21.84;80.11;98652.69;4989666;28;20174;-45
2023/05/05 02:11:52;;;;;;;;;;;;;;;21.59;78.90;98644.25;5010181;28;19943;-45
2023/05/05 02:14:18;;;;;;;;;;;;;;;20.77;81.09;98655.25;4987342;28;20384;-44
2023/05/05 02:16:43;;;;;;;;;;;;;;;21.23;82.56;98664.66;5008458;28;19917;-45
2023/05/05 02:19:09;;;;;;;;;;;;;;;20.89;81.52;98656.03;5007398;28;20811;-45
2023/05/05 02:21:34;;;;;;;;;;;;;;;21.61;81.14;98652.81;5003973;28;19931;-45
2023/05/05 02:23:59;;;;;;;;;;;;;;;20.95;82.04;98665.22;5003919;28;20059;-45
2023/05/05 02:26:25;;;;;;;;;;;;;;;21.54;79.96;98643.81;4988545;28;19928;-45
2023/05/05 02:29:23;;;;;;;;;;;;;;;21.08;81.04;98650.19;5008633;28;20544;-47
2023/05/05 02:31:49;;;;;;;;;;;;;;;22.23;77.89;98624.06;4971209;28;20481;-45
2023/05/05 02:34:15;;;;;;;;;;;;;;;21.65;82.81;98672.59;5004509;28;19920;-47
2023/05/05 02:36:41;;;;;;;;;;;;;;;21.32;82.13;98663.06;4986737;28;19921;-46
2023/05/05 02:39:08;;;;;;;;;;;;;;;21.58;79.21;98645.22;5004824;28;19921;-45
2023/05/05 02:41:34;;;;;;;;;;;;;;;21.62;80.06;98657.13;5006385;28;19921;-45
2023/05/05 02:44:00;;;;;;;;;;;;;;;22.05;78.11;98635.13;5003606;28;20088;-45
2023/05/05 02:46:25;;;;;;;;;;;;;;;21.98;77.75;98631.38;5006617;28;20364;-45
2023/05/05 02:48:50;;;;;;;;;;;;;;;22.41;76.86;98640.84;5003280;28;19947;-45
2023/05/05 02:51:16;;;;;;;;;;;;;;;22.07;76.32;98646.31;5004242;28;19952;-47
2023/05/05 02:53:41;;;;;;;;;;;;;;;22.44;77.82;98658.97;5005525;28;19917;-45
2023/05/05 02:56:29;;;;;;;;;;;;;;;22.68;77.28;98655.97;4986986;28;19966;-46
2023/05/05 02:59:08;;;;;;;;;;;;;;;22.52;76.35;98661.72;4997806;28;20028;-45
2023/05/05 03:01:33;;;;;;;;;;;;;;;22.72;76.96;98667.06;5000447;28;19956;-46
2023/05/05 03:04:03;;;;;;;;;;;;;;;22.57;77.94;98674.44;5005588;28;20074;-46
2023/05/05 03:06:28;;;;;;;;;;;;;;;22.53;77.27;98673.91;5005612;28;19976;-46
2023/05/05 03:08:59;;;;;;;;;;;;;;;22.58;78.35;98684.00;5003950;28;20051;-45
2023/05/05 03:11:26;;;;;;;;;;;;;;;22.62;78.54;98674.06;5005680;28;19933;-45
2023/05/05 03:13:53;;;;;;;;;;;;;;;22.70;77.84;98674.22;5003402;28;19928;-45
2023/05/05 03:16:19;;;;;;;;;;;;;;;22.57;79.00;98681.50;5005652;28;20219;-45
2023/05/05 03:18:44;;;;;;;;;;;;;;;22.52;81.14;98695.84;5006466;28;20019;-45
2023/05/05 03:21:09;;;;;;;;;;;;;;;22.55;80.20;98682.44;5003864;28;19943;-45
2023/05/05 03:23:35;;;;;;;;;;;;;;;22.13;80.18;98693.03;5004546;28;19921;-45
2023/05/05 03:26:00;;;;;;;;;;;;;;;21.78;82.84;98711.72;5005992;28;19925;-45
2023/05/05 03:28:25;;;;;;;;;;;;;;;21.52;83.73;98712.06;5006140;28;19965;-46
2023/05/05 03:30:50;;;;;;;;;;;;;;;21.93;82.83;98707.81;5006774;28;19917;-45
2023/05/05 03:33:16;;;;;;;;;;;;;;;22.49;81.59;98685.63;5002349;28;19925;-45
2023/05/05 03:35:41;;;;;;;;;;;;;;;22.43;82.00;98688.78;5006104;28;19929;-45
2023/05/05 03:38:06;;;;;;;;;;;;;;;22.27;81.81;98698.91;5005054;28;19953;-46
2023/05/05 03:40:31;;;;;;;;;;;;;;;22.18;83.07;98700.50;5005213;28;20011;-44
2023/05/05 03:42:57;;;;;;;;;;;;;;;22.45;81.87;98692.09;5004366;28;19925;-44
2023/05/05 03:45:22;;;;;;;;;;;;;;;22.41;83.42;98709.06;5005351;28;19949;-45
2023/05/05 03:47:47;;;;;;;;;;;;;;;22.54;82.11;98701.81;5006753;28;19971;-45
2023/05/05 03:50:12;;;;;;;;;;;;;;;22.34;83.91;98715.78;5006182;28;20392;-45
2023/05/05 03:52:38;;;;;;;;;;;;;;;22.45;81.66;98693.91;5005144;28;19932;-45
2023/05/05 03:55:03;;;;;;;;;;;;;;;22.23;83.54;98708.84;5006601;28;19921;-45
2023/05/05 03:57:28;;;;;;;;;;;;;;;22.47;83.90;98719.03;5005388;28;20336;-45
2023/05/05 03:59:53;;;;;;;;;;;;;;;22.33;85.33;98729.88;5006196;28;19921;-44
2023/05/05 04:02:19;;;;;;;;;;;;;;;22.17;84.00;98725.06;5003391;28;19925;-44
2023/05/05 04:04:44;;;;;;;;;;;;;;;22.45;83.82;98715.72;5004779;28;20337;-45
2023/05/05 04:07:10;;;;;;;;;;;;;;;22.46;84.20;98729.66;5004143;28;19970;-45
2023/05/05 04:09:35;;;;;;;;;;;;;;;22.60;82.27;98704.84;5001801;28;19921;-45
2023/05/05 04:12:01;;;;;;;;;;;;;;;22.55;83.41;98719.19;5006165;28;19917;-45
2023/05/05 04:14:27;;;;;;;;;;;;;;;22.32;83.95;98733.47;5005528;28;19928;-45
2023/05/05 04:16:53;;;;;;;;;;;;;;;22.37;84.36;98728.66;5007334;28;19916;-45
2023/05/05 04:19:18;;;;;;;;;;;;;;;22.45;83.98;98725.38;5006609;28;19980;-44
2023/05/05 04:21:43;;;;;;;;;;;;;;;22.30;83.97;98740.63;5007543;28;20325;-45
2023/05/05 04:24:08;;;;;;;;;;;;;;;21.82;86.23;98757.66;5005926;28;19938;-45
2023/05/05 04:26:34;;;;;;;;;;;;;;;21.23;88.40;98782.50;5007313;28;19925;-44
2023/05/05 04:28:59;;;;;;;;;;;;;;;21.83;88.92;98769.00;5005941;28;19927;-44
2023/05/05 04:31:24;;;;;;;;;;;;;;;20.64;91.27;98796.69;4988877;28;19922;-45
2023/05/05 04:33:49;;;;;;;;;;;;;;;20.14;96.35;98831.84;5005053;28;19923;-44
2023/05/05 04:36:15;;;;;;;;;;;;;;;21.17;94.80;98793.47;5005503;28;20009;-44
2023/05/05 04:38:40;;;;;;;;;;;;;;;21.03;93.34;98785.88;5006627;28;19921;-45
2023/05/05 04:41:05;;;;;;;;;;;;;;;21.44;94.69;98789.63;5005756;28;20003;-44
2023/05/05 04:43:31;;;;;;;;;;;;;;;21.02;99.44;98818.22;5006096;28;20612;-44
2023/05/05 04:45:56;;;;;;;;;;;;;;;21.40;96.74;98794.28;5005948;28;19925;-45
2023/05/05 04:48:21;;;;;;;;;;;;;;;21.46;99.46;98808.66;4972646;28;19983;-44
2023/05/05 04:50:46;;;;;;;;;;;;;;;21.92;97.43;98794.47;5007143;28;20008;-44
2023/05/05 04:53:11;;;;;;;;;;;;;;;22.19;98.34;98795.75;5005319;28;19971;-45
2023/05/05 04:55:37;;;;;;;;;;;;;;;22.50;96.02;98784.38;5006888;28;19925;-47
2023/05/05 04:58:03;;;;;;;;;;;;;;;22.58;94.85;98790.75;5002852;28;20032;-44
2023/05/05 05:00:28;;;;;;;;;;;;;;;22.82;96.00;98793.91;5004329;28;19921;-45
2023/05/05 05:02:53;;;;;;;;;;;;;;;22.47;96.57;98796.94;5004610;28;19925;-45
2023/05/05 05:05:18;;;;;;;;;;;;;;;23.13;95.12;98780.81;5006393;28;19920;-44
2023/05/05 05:07:44;;;;;;;;;;;;;;;22.89;96.48;98795.03;5005816;28;19921;-45
2023/05/05 05:10:10;;;;;;;;;;;;;;;23.10;96.39;98786.28;5003727;28;19922;-44
2023/05/05 05:12:35;;;;;;;;;;;;;;;22.50;99.41;98822.91;5007229;28;21033;-44
2023/05/05 05:15:01;;;;;;;;;;;;;;;22.25;100.00;98835.44;5009688;28;20007;-45
2023/05/05 05:17:26;;;;;;;;;;;;;;;23.14;100.00;98811.34;5009718;28;19955;-45
2023/05/05 05:19:51;;;;;;;;;;;;;;;23.15;100.00;98810.41;5010072;28;19916;-44
2023/05/05 05:22:16;;;;;;;;;;;;;;;20.74;100.00;98869.28;5010678;28;19994;-45
2023/05/05 05:24:42;;;;;;;;;;;;;;;21.65;100.00;98856.03;5010366;28;20055;-45
2023/05/05 05:27:08;;;;;;;;;;;;;;;22.08;100.00;98826.34;5010332;28;20602;-45
2023/05/05 05:29:33;;;;;;;;;;;;;;;21.28;100.00;98856.31;4990420;28;19921;-44
2023/05/05 05:31:58;;;;;;;;;;;;;;;21.18;100.00;98863.22;5011003;28;19948;-45
2023/05/05 05:34:24;;;;;;;;;;;;;;;20.77;100.00;98875.09;4988649;28;20099;-45
2023/05/05 05:36:49;;;;;;;;;;;;;;;20.82;100.00;98878.22;5010098;28;20039;-44
2023/05/05 05:39:14;;;;;;;;;;;;;;;22.83;100.00;98821.84;5010341;28;20012;-44
2023/05/05 05:41:40;;;;;;;;;;;;;;;22.00;100.00;98844.47;5010088;28;19921;-45
2023/05/05 05:44:05;;;;;;;;;;;;;;;21.50;100.00;98870.34;5009833;28;19924;-45
2023/05/05 05:46:30;;;;;;;;;;;;;;;21.87;100.00;98859.53;5009630;28;19918;-44
2023/05/05 05:48:56;;;;;;;;;;;;;;;21.56;100.00;98867.25;5010258;28;19917;-44
2023/05/05 05:51:21;;;;;;;;;;;;;;;21.03;100.00;98890.59;5009302;28;19917;-45
2023/05/05 05:53:46;;;;;;;;;;;;;;;22.00;100.00;98870.69;5008780;28;20470;-44
2023/05/05 05:56:11;;;;;;;;;;;;;;;21.22;100.00;98890.81;5009937;28;20566;-44
2023/05/05 05:58:37;;;;;;;;;;;;;;;21.12;100.00;98899.50;5010167;28;20728;-45
2023/05/05 06:01:03;;;;;;;;;;;;;;;22.30;100.00;98861.31;5009633;28;19924;-45
2023/05/05 06:03:29;;;;;;;;;;;;;;;21.77;100.00;98885.66;5008042;28;19935;-44
2023/05/05 06:05:54;;;;;;;;;;;;;;;22.22;100.00;98879.47;5011635;28;20685;-45
2023/05/05 06:08:19;;;;;;;;;;;;;;;22.37;100.00;98849.34;5009238;28;21125;-45
2023/05/05 06:10:46;;;;;;;;;;;;;;;22.10;100.00;98860.28;5009491;28;20304;-44
2023/05/05 06:13:12;;;;;;;;;;;;;;;22.72;100.00;98856.06;4987842;28;19999;-44
2023/05/05 06:15:37;;;;;;;;;;;;;;;22.27;100.00;98886.00;5010177;28;20400;-45
2023/05/05 06:18:02;;;;;;;;;;;;;;;22.36;100.00;98879.16;5008989;28;19952;-44
2023/05/05 06:20:27;;;;;;;;;;;;;;;22.22;100.00;98885.56;5008017;28;20063;-45
2023/05/05 06:22:53;;;;;;;;;;;;;;;23.21;100.00;98862.38;5009167;28;19917;-45
2023/05/05 06:25:18;;;;;;;;;;;;;;;23.16;100.00;98859.34;5007455;28;19975;-45
2023/05/05 06:27:43;;;;;;;;;;;;;;;21.65;100.00;98913.69;5007886;28;20071;-45
2023/05/05 06:30:09;;;;;;;;;;;;;;;21.90;100.00;98917.00;5008532;28;19927;-44
2023/05/05 06:32:34;;;;;;;;;;;;;;;21.65;100.00;98924.19;5007666;28;19917;-45
2023/05/05 06:34:59;;;;;;;;;;;;;;;22.06;100.00;98906.94;5009871;28;20520;-45
2023/05/05 06:37:25;;;;;;;;;;;;;;;22.62;100.00;98891.91;5010370;28;19969;-44
2023/05/05 06:39:50;;;;;;;;;;;;;;;21.62;100.00;98923.56;5010281;28;19951;-45
2023/05/05 06:42:15;;;;;;;;;;;;;;;22.13;100.00;98913.34;5008157;28;19960;-44
2023/05/05 06:44:40;;;;;;;;;;;;;;;22.12;100.00;98922.19;5007090;28;20020;-44
2023/05/05 06:47:06;;;;;;;;;;;;;;;21.56;100.00;98932.78;5007490;28;20666;-44
2023/05/05 06:49:32;;;;;;;;;;;;;;;21.50;100.00;98941.09;5007897;28;20602;-46
2023/05/05 06:51:57;;;;;;;;;;;;;;;21.77;100.00;98927.59;5007805;28;20986;-46
2023/05/05 06:54:22;;;;;;;;;;;;;;;20.76;100.00;98951.94;4988615;28;19978;-46
2023/05/05 06:56:47;;;;;;;;;;;;;;;20.26;100.00;98974.78;5008642;28;19928;-44
2023/05/05 06:59:13;;;;;;;;;;;;;;;21.50;100.00;98962.06;5008223;28;19921;-44
2023/05/05 07:01:38;;;;;;;;;;;;;;;21.54;100.00;98950.41;5004301;28;19928;-44
2023/05/05 07:04:03;;;;;;;;;;;;;;;20.96;100.00;98958.31;5008380;28;19928;-44
2023/05/05 07:06:28;;;;;;;;;;;;;;;20.55;100.00;98983.13;5010471;28;20301;-45
2023/05/05 07:08:54;;;;;;;;;;;;;;;20.28;100.00;98983.34;5007260;28;20026;-44
2023/05/05 07:11:19;;;;;;;;;;;;;;;20.45;100.00;98985.56;5007233;28;19944;-44
2023/05/05 07:13:45;;;;;;;;;;;;;;;20.54;100.00;99001.56;5006925;28;20639;-44
2023/05/05 07:16:10;;;;;;;;;;;;;;;20.25;100.00;99004.47;5009666;28;21753;-45
2023/05/05 07:18:35;;;;;;;;;;;;;;;20.37;100.00;99016.69;5008543;28;19948;-44
2023/05/05 07:21:00;;;;;;;;;;;;;;;20.64;100.00;99021.72;5009307;28;20012;-45
2023/05/05 07:23:26;;;;;;;;;;;;;;;20.66;100.00;99018.97;5006902;28;19961;-44
2023/05/05 07:25:51;;;;;;;;;;;;;;;21.34;100.00;99009.53;5008828;28;21816;-45
2023/05/05 07:28:16;;;;;;;;;;;;;;;21.01;100.00;99016.38;5007646;28;19928;-44
2023/05/05 07:30:41;;;;;;;;;;;;;;;20.97;100.00;99014.94;5005335;28;19916;-45
2023/05/05 07:33:07;;;;;;;;;;;;;;;21.84;100.00;98990.88;5008099;28;21302;-46
2023/05/05 07:35:32;;;;;;;;;;;;;;;21.45;100.00;98970.28;5007068;28;20030;-44
2023/05/05 07:37:57;;;;;;;;;;;;;;;21.78;100.00;98980.88;5005841;28;20007;-45
2023/05/05 07:40:22;;;;;;;;;;;;;;;21.56;100.00;98992.22;5008818;28;19967;-46
2023/05/05 07:42:48;;;;;;;;;;;;;;;21.07;100.00;98996.75;5006539;28;19926;-46
2023/05/05 07:45:13;;;;;;;;;;;;;;;21.35;100.00;98994.66;5007245;28;19928;-45
2023/05/05 07:47:39;;;;;;;;;;;;;;;21.56;100.00;98982.56;5006928;28;19972;-45
2023/05/05 07:50:04;;;;;;;;;;;;;;;21.58;100.00;98980.66;5009344;28;19925;-45
2023/05/05 07:52:30;;;;;;;;;;;;;;;22.33;100.00;98969.47;5006778;28;20396;-45
2023/05/05 07:54:55;;;;;;;;;;;;;;;21.60;100.00;98975.28;5008315;28;19928;-45
2023/05/05 07:57:20;;;;;;;;;;;;;;;21.28;100.00;98989.91;5007761;28;19921;-45
2023/05/05 07:59:45;;;;;;;;;;;;;;;22.16;100.00;98980.44;5009120;28;19952;-45
2023/05/05 08:02:13;;;;;;;;;;;;;;;22.36;100.00;98939.53;5005573;28;20886;-44
2023/05/05 08:04:39;;;;;;;;;;;;;;;22.50;100.00;98946.25;5005248;28;21696;-45
2023/05/05 08:07:04;;;;;;;;;;;;;;;22.35;100.00;98937.84;5007574;28;19916;-45
2023/05/05 08:09:29;;;;;;;;;;;;;;;24.09;100.00;98894.97;5005214;28;20292;-46
2023/05/05 08:11:55;;;;;;;;;;;;;;;22.23;100.00;98938.84;5005442;28;20002;-45
2023/05/05 08:14:20;;;;;;;;;;;;;;;23.39;100.00;98908.09;5005630;28;20071;-45
2023/05/05 08:16:45;;;;;;;;;;;;;;;23.36;100.00;98895.22;5008081;28;20267;-44
2023/05/05 08:19:10;;;;;;;;;;;;;;;22.01;100.00;98945.81;5006374;28;20876;-45
2023/05/05 08:21:36;;;;;;;;;;;;;;;21.81;100.00;98973.59;5008377;28;20800;-44
2023/05/05 08:24:01;;;;;;;;;;;;;;;22.33;100.00;98987.00;5007836;28;20309;-45
2023/05/05 08:26:26;;;;;;;;;;;;;;;22.97;100.00;98938.84;5006188;28;19921;-44
2023/05/05 08:28:54;;;;;;;;;;;;;;;22.64;100.00;98917.06;5006615;28;19932;-45
2023/05/05 08:31:19;;;;;;;;;;;;;;;23.29;100.00;98907.22;5007343;28;19928;-45
2023/05/05 08:33:44;;;;;;;;;;;;;;;22.80;100.00;98936.78;5005476;28;19952;-45
2023/05/05 08:36:10;;;;;;;;;;;;;;;22.37;100.00;98949.03;5009501;28;20017;-45
2023/05/05 08:38:35;;;;;;;;;;;;;;;22.60;100.00;98988.31;5009682;28;19993;-45
2023/05/05 08:41:01;;;;;;;;;;;;;;;22.50;100.00;98970.69;5008040;28;19935;-46
2023/05/05 08:43:26;;;;;;;;;;;;;;;22.14;100.00;98964.81;5004586;28;20023;-45
2023/05/05 08:45:51;;;;;;;;;;;;;;;22.20;100.00;98975.81;5006450;28;19956;-45
2023/05/05 08:48:17;;;;;;;;;;;;;;;22.31;100.00;98967.94;5004319;28;20493;-45
2023/05/05 08:50:43;;;;;;;;;;;;;;;22.25;100.00;98973.66;5012971;28;19920;-45
2023/05/05 08:53:11;;;;;;;;;;;;;;;22.40;100.00;98988.16;5011768;28;19971;-45
2023/05/05 08:55:54;;;;;;;;;;;;;;;22.82;100.00;98954.09;5013456;28;20021;-45
2023/05/05 08:58:20;;;;;;;;;;;;;;;23.51;100.00;98926.38;5013636;28;19921;-45
2023/05/05 09:00:45;;;;;;;;;;;;;;;24.33;100.00;98901.63;5012305;28;19925;-46
2023/05/05 09:03:10;;;;;;;;;;;;;;;24.48;100.00;98899.44;5012084;28;20006;-46
2023/05/05 09:05:36;;;;;;;;;;;;;;;25.21;100.00;98889.16;5012008;28;20485;-46
2023/05/05 09:08:01;;;;;;;;;;;;;;;23.66;100.00;98934.75;5012398;28;19956;-46
2023/05/05 09:10:26;;;;;;;;;;;;;;;23.31;100.00;98907.94;5008662;28;19981;-45
2023/05/05 09:12:53;;;;;;;;;;;;;;;24.16;100.00;98898.72;5010475;28;22373;-46
2023/05/05 09:15:19;;;;;;;;;;;;;;;26.35;100.00;98860.50;5011073;28;20068;-45
2023/05/05 09:17:44;;;;;;;;;;;;;;;24.24;100.00;98923.50;5013608;28;19917;-45
2023/05/05 09:20:10;;;;;;;;;;;;;;;25.75;100.00;98847.94;5012857;28;19972;-46
2023/05/05 09:22:42;;;;;;;;;;;;;;;25.46;100.00;98901.66;5011290;28;19921;-45
2023/05/05 09:25:08;;;;;;;;;;;;;;;24.83;100.00;98888.28;5011869;28;19925;-45
2023/05/05 09:27:37;;;;;;;;;;;;;;;24.43;100.00;98918.25;5011999;28;19959;-46
2023/05/05 09:30:04;;;;;;;;;;;;;;;24.69;100.00;98928.25;5012011;28;20024;-45
2023/05/05 09:32:30;;;;;;;;;;;;;;;25.73;100.00;98878.91;5011445;28;19921;-45
2023/05/05 09:34:59;;;;;;;;;;;;;;;26.19;100.00;98845.38;5012240;28;19917;-45
2023/05/05 09:37:30;;;;;;;;;;;;;;;24.31;100.00;98920.19;5013819;28;19994;-46
2023/05/05 09:39:57;;;;;;;;;;;;;;;23.65;100.00;98939.19;5013022;28;20006;-45
2023/05/05 09:42:22;;;;;;;;;;;;;;;24.53;100.00;98924.38;5014531;28;19948;-45
2023/05/05 09:44:47;;;;;;;;;;;;;;;27.08;100.00;98852.22;5010940;28;20324;-45
2023/05/05 09:47:13;;;;;;;;;;;;;;;24.82;100.00;98910.34;5012800;28;20019;-45
2023/05/05 09:49:38;;;;;;;;;;;;;;;24.57;100.00;98930.19;5011510;28;20365;-45
2023/05/05 09:52:13;;;;;;;;;;;;;;;24.21;100.00;98909.66;5014212;28;19963;-45
2023/05/05 09:54:39;;;;;;;;;;;;;;;27.41;100.00;98831.22;4993427;28;19988;-46
2023/05/05 09:57:04;;;;;;;;;;;;;;;25.36;100.00;98887.72;5011355;28;20378;-46
2023/05/05 09:59:29;;;;;;;;;;;;;;;26.73;100.00;98850.59;5013416;28;19917;-45
2023/05/05 10:01:57;;;;;;;;;;;;;;;25.46;100.00;98916.66;5009325;28;19932;-45
2023/05/05 10:04:23;;;;;;;;;;;;;;;25.25;100.00;98903.72;4990404;28;20297;-45
2023/05/05 10:06:48;;;;;;;;;;;;;;;26.90;100.00;98844.38;5011771;28;20409;-45
2023/05/05 10:09:14;;;;;;;;;;;;;;;24.60;100.00;98928.09;5010387;28;19932;-45
2023/05/05 10:11:40;;;;;;;;;;;;;;;29.46;95.54;98785.94;5006746;28;19929;-45
2023/05/05 10:14:05;;;;;;;;;;;;;;;25.55;100.00;98910.50;5008129;28;20004;-45
2023/05/05 10:16:31;;;;;;;;;;;;;;;26.59;100.00;98878.38;5006021;28;19923;-46
2023/05/05 10:18:56;;;;;;;;;;;;;;;28.57;96.27;98811.81;5005416;28;20011;-45
2023/05/05 10:21:23;;;;;;;;;;;;;;;28.00;95.92;98835.66;5008258;28;20393;-45
2023/05/05 10:23:51;;;;;;;;;;;;;;;26.20;100.00;98883.97;4988370;28;19928;-45
2023/05/05 10:26:16;;;;;;;;;;;;;;;26.49;100.00;98874.97;5002762;28;20020;-45
2023/05/05 10:28:48;;;;;;;;;;;;;;;25.31;100.00;98940.03;5004484;28;19982;-46
2023/05/05 10:31:19;;;;;;;;;;;;;;;25.19;100.00;98920.94;5005691;28;20424;-45
2023/05/05 10:33:49;;;;;;;;;;;;;;;27.84;100.00;98833.84;5006018;28;19928;-45
2023/05/05 10:36:15;;;;;;;;;;;;;;;27.98;100.00;98835.00;4988668;28;20149;-46
2023/05/05 10:38:40;;;;;;;;;;;;;;;28.77;100.00;98810.44;5006625;28;20028;-45
2023/05/05 10:41:05;;;;;;;;;;;;;;;26.36;100.00;98893.03;5007750;28;19921;-47
2023/05/05 10:43:30;;;;;;;;;;;;;;;27.07;100.00;98847.94;4988497;28;20466;-46
2023/05/05 10:45:56;;;;;;;;;;;;;;;27.41;100.00;98835.69;5007221;28;20353;-48
2023/05/05 10:48:47;;;;;;;;;;;;;;;26.04;100.00;98855.63;5004715;28;20373;-48
2023/05/05 10:51:33;;;;;;;;;;;;;;;25.52;100.00;98879.16;5004582;28;19972;-47
2023/05/05 10:53:59;;;;;;;;;;;;;;;28.15;97.48;98792.47;4972722;28;19917;-46
2023/05/05 10:56:25;;;;;;;;;;;;;;;25.69;100.00;98864.34;5003730;28;19974;-46
2023/05/05 10:58:50;;;;;;;;;;;;;;;26.43;100.00;98865.84;5006948;28;19960;-46
2023/05/05 11:01:26;;;;;;;;;;;;;;;26.28;100.00;98843.63;5005862;28;20056;-46
2023/05/05 11:04:04;;;;;;;;;;;;;;;26.57;100.00;98853.94;5005859;28;20374;-46
2023/05/05 11:06:29;;;;;;;;;;;;;;;26.62;100.00;98819.97;5003304;28;19925;-46
2023/05/05 11:08:55;;;;;;;;;;;;;;;26.47;100.00;98819.66;5005242;28;20227;-45
2023/05/05 11:11:20;;;;;;;;;;;;;;;26.66;97.02;98784.34;5004666;28;20997;-45
2023/05/05 11:13:46;;;;;;;;;;;;;;;27.23;100.00;98809.34;4988103;28;20149;-46
2023/05/05 11:16:41;;;;;;;;;;;;;;;25.88;100.00;98839.66;5006061;28;20011;-47
2023/05/05 11:19:26;;;;;;;;;;;;;;;28.28;91.45;98723.13;5006688;28;20027;-46
2023/05/05 11:22:01;;;;;;;;;;;;;;;26.43;100.00;98822.75;5006210;28;19917;-45
2023/05/05 11:24:28;;;;;;;;;;;;;;;27.86;93.38;98733.94;5005183;28;19925;-46
2023/05/05 11:26:53;;;;;;;;;;;;;;;29.06;86.36;98716.22;5004734;28;19991;-46
2023/05/05 11:29:18;;;;;;;;;;;;;;;26.60;98.73;98790.22;5004593;28;19967;-46
2023/05/05 11:31:46;;;;;;;;;;;;;;;27.67;98.09;98761.53;5007217;28;21320;-46
2023/05/05 11:34:27;;;;;;;;;;;;;;;27.37;90.62;98728.56;5004361;28;19924;-46
2023/05/05 11:36:55;;;;;;;;;;;;;;;25.07;100.00;98826.38;5006104;28;19912;-46
2023/05/05 11:39:52;;;;;;;;;;;;;;;26.10;100.00;98782.94;5005433;28;19929;-46
2023/05/05 11:42:20;;;;;;;;;;;;;;;26.48;100.00;98786.19;4959026;28;20407;-45
2023/05/05 11:44:45;;;;;;;;;;;;;;;26.29;100.00;98780.09;5006316;28;19979;-47
2023/05/05 11:47:10;;;;;;;;;;;;;;;26.12;100.00;98823.22;5006016;28;20927;-46
2023/05/05 11:49:37;;;;;;;;;;;;;;;27.29;99.65;98738.16;4999147;28;19925;-46
2023/05/05 11:52:03;;;;;;;;;;;;;;;26.28;100.00;98780.28;5006636;28;19925;-46
2023/05/05 11:54:28;;;;;;;;;;;;;;;26.15;100.00;98764.84;5006851;28;19929;-45
2023/05/05 11:56:57;;;;;;;;;;;;;;;25.27;100.00;98783.13;5007663;28;19928;-45
2023/05/05 11:59:23;;;;;;;;;;;;;;;26.38;100.00;98745.84;5007419;28;19921;-45
2023/05/05 12:01:48;;;;;;;;;;;;;;;26.88;100.00;98751.22;5003948;28;20051;-46
2023/05/05 12:04:13;;;;;;;;;;;;;;;25.73;100.00;98806.81;4988962;28;19960;-46
2023/05/05 12:06:39;;;;;;;;;;;;;;;27.38;98.54;98725.78;5009033;28;20015;-47
2023/05/05 12:09:05;;;;;;;;;;;;;;;25.91;100.00;98783.97;5006176;28;19963;-46
2023/05/05 12:11:30;;;;;;;;;;;;;;;27.26;96.93;98721.81;5007133;28;19916;-46
2023/05/05 12:14:09;;;;;;;;;;;;;;;28.05;94.43;98711.56;5006273;28;20547;-46
2023/05/05 12:16:34;;;;;;;;;;;;;;;26.27;92.79;98726.66;5008544;28;19928;-46
2023/05/05 12:19:04;;;;;;;;;;;;;;;27.11;95.02;98722.38;5006873;28;20539;-46
2023/05/05 12:21:30;;;;;;;;;;;;;;;26.42;90.05;98691.75;5006217;28;19921;-47
2023/05/05 12:23:55;;;;;;;;;;;;;;;27.90;83.78;98659.31;5005721;28;19983;-47
2023/05/05 12:26:27;;;;;;;;;;;;;;;27.69;86.81;98675.69;5006562;28;19961;-46
2023/05/05 12:28:56;;;;;;;;;;;;;;;25.90;91.22;98731.34;5007467;28;20968;-46
2023/05/05 12:31:21;;;;;;;;;;;;;;;25.54;100.00;98787.53;5003005;28;19999;-46
2023/05/05 12:33:47;;;;;;;;;;;;;;;25.69;100.00;98790.50;4997119;28;20007;-47
2023/05/05 12:36:12;;;;;;;;;;;;;;;25.73;100.00;98768.13;5007358;28;19932;-45
2023/05/05 12:38:37;;;;;;;;;;;;;;;25.56;100.00;98722.28;5006827;28;20146;-46